Latest Weather Observations for Birdsville

IDQ60801

Issued at 11:32 pm EST Thursday 30 June 2016 (issued every 30 minutes, with the page automatically refreshed every 10 minutes)

About weather observations | Map of weather stations | Latest weather observations for QLD | Other Formats
Station Details ID: 038026 Name: BIRDSVILLE AIRPORT Lat: -25.90 Lon: 139.35 Height: 46.6 m
Data from the previous 72 hours. | See also: Recent months at Birdsville
Date/Time
EST
Temp
°C
App
Temp
°C
Dew
Point
°C
Rel
Hum
%
Delta-T
°C
Wind Press
QNH
hPa
Press
MSL
hPa
Rain since
9am
mm
Dir  Spd
km/h
Gust
km/h
Spd
kts
Gust
kts
30/11:30pm 12.3 12.0 8.6 78 1.8 CALM 0 0 0 0 1022.1 - 0.0
30/11:00pm 12.4 10.9 8.3 76 2.0 WNW 6 7 3 4 1022.1 - 0.0
30/10:30pm 13.1 11.5 8.2 72 2.4 W 6 7 3 4 1022.1 - 0.0
30/10:00pm 13.1 11.0 8.2 72 2.4 NW 9 13 5 7 1021.9 - 0.0
30/09:30pm 13.1 10.4 7.5 69 2.7 NW 11 13 6 7 1022.0 - 0.0
30/09:00pm 14.4 12.0 7.0 61 3.6 WNW 9 11 5 6 1022.0 1022.0 0.0
30/08:30pm 14.6 12.1 6.4 58 4.0 WNW 9 11 5 6 1021.8 - 0.0
30/08:00pm 14.7 11.9 6.8 59 3.9 WSW 11 11 6 6 1021.6 - 0.0
30/07:30pm 14.8 12.6 7.8 63 3.5 WSW 9 9 5 5 1021.3 - 0.0
30/07:00pm 16.1 13.9 7.8 58 4.2 WSW 9 9 5 5 1021.0 - 0.0
30/06:30pm 17.2 14.9 7.5 53 4.9 WSW 9 9 5 5 1020.5 - 0.0
30/06:00pm 18.4 16.2 6.3 45 6.0 WSW 7 9 4 5 1020.1 1020.2 0.0
30/05:30pm 20.0 17.6 5.3 38 7.2 WSW 7 11 4 6 1019.9 - 0.0
30/05:00pm 20.8 18.2 4.4 34 8.0 WSW 7 11 4 6 1019.8 - 0.0
30/04:30pm 20.7 18.0 3.9 33 8.1 W 7 11 4 6 1019.7 - 0.0
30/04:00pm 20.7 18.0 3.9 33 8.1 WSW 7 11 4 6 1019.4 - 0.0
30/03:30pm 20.6 17.2 3.8 33 8.1 W 11 15 6 8 1019.5 - 0.0
30/03:00pm 20.5 17.0 3.3 32 8.1 W 11 17 6 9 1019.6 1019.6 0.0
30/02:30pm 20.7 16.6 2.5 30 8.5 W 13 17 7 9 1020.0 - 0.0
30/02:00pm 20.3 16.0 3.1 32 8.1 W 15 20 8 11 1020.3 - 0.0
30/01:30pm 19.8 15.8 3.1 33 7.8 W 13 19 7 10 1020.6 - 0.0
30/01:00pm 19.3 14.9 2.6 33 7.7 WNW 15 20 8 11 1021.0 - 0.0
30/12:30pm 18.8 15.4 3.8 37 7.1 W 11 17 6 9 1021.6 - 0.0
30/12:00pm 18.3 15.4 4.5 40 6.6 W 9 13 5 7 1022.3 1022.2 0.0
30/11:30am 16.5 13.7 5.2 47 5.4 NW 9 11 5 6 1022.6 - 0.0
30/11:00am 15.7 13.4 5.9 52 4.7 NW 7 9 4 5 1022.8 - 0.0
30/10:30am 14.9 12.2 5.7 54 4.4 WNW 9 13 5 7 1023.1 - 0.0
30/10:00am 13.1 12.1 5.5 60 3.6 CALM 0 0 0 0 1022.9 - 0.0
30/09:30am 11.7 10.0 6.0 68 2.7 NNE 4 6 2 3 1022.7 - 0.0
30/09:00am 9.8 8.9 6.2 78 1.7 CALM 0 0 0 0 1022.5 1022.5 0.0
30/08:30am 7.6 6.5 5.2 85 1.1 CALM 0 0 0 0 1022.3 - 0.0
30/08:00am 6.3 5.2 4.9 91 0.6 CALM 0 0 0 0 1021.9 - 0.0
30/07:30am 5.3 4.0 4.0 91 0.5 CALM 0 0 0 0 1021.5 - 0.0
30/07:00am 5.7 4.4 4.3 91 0.6 CALM 0 0 0 0 1021.1 - 0.0
30/06:30am 5.8 3.4 4.4 91 0.6 N 6 7 3 4 1020.8 - 0.0
30/06:00am 5.6 3.2 4.1 90 0.6 N 6 7 3 4 1020.4 1020.4 0.0
30/05:30am 5.6 2.6 4.1 90 0.6 WSW 9 9 5 5 1020.5 - 0.0
30/05:00am 5.8 2.8 4.1 89 0.7 WSW 9 11 5 6 1020.4 - 0.0
30/04:30am 5.9 3.9 4.4 90 0.6 N 4 6 2 3 1020.1 - 0.0
30/04:00am 6.1 3.2 4.4 89 0.7 NNE 9 11 5 6 1020.0 - 0.0
30/03:30am 6.5 4.0 4.5 87 0.9 N 7 9 4 5 1020.2 - 0.0
30/03:00am 6.5 4.0 4.5 87 0.9 N 7 7 4 4 1020.4 1020.4 0.0
30/02:30am 7.4 5.1 5.5 88 0.8 N 7 9 4 5 1020.7 - 0.0
30/02:00am 7.2 4.7 4.7 84 1.1 N 7 7 4 4 1020.8 - 0.0
30/01:30am 7.6 5.2 5.1 84 1.1 N 7 9 4 5 1021.0 - 0.0
30/01:00am 7.2 4.4 5.0 86 1.0 N 9 11 5 6 1021.2 - 0.0
30/12:30am 7.9 5.5 5.4 84 1.1 NNE 7 7 4 4 1021.8 - 0.0
30/12:00am 8.0 5.9 6.0 87 0.9 NE 6 9 3 5 1022.1 1022.1 0.0
 
Date/Time
EST
Temp
°C
App
Temp
°C
Dew
Point
°C
Rel
Hum
%
Delta-T
°C
Wind Press
QNH
hPa
Press
MSL
hPa
Rain since
9am
mm
Dir  Spd
km/h
Gust
km/h
Spd
kts
Gust
kts
29/11:30pm 8.6 7.4 6.4 86 1.0 NNE 2 15 1 8 1022.1 - 0.0
29/11:00pm 8.4 7.3 5.3 81 1.4 CALM 0 0 0 0 1022.3 - 0.0
29/10:30pm 9.5 7.8 5.7 77 1.7 N 4 6 2 3 1022.2 - 0.0
29/10:00pm 9.8 8.2 6.3 79 1.6 NNE 4 9 2 5 1022.2 - 0.0
29/09:30pm 10.1 9.3 6.6 79 1.6 CALM 0 0 0 0 1022.6 - 0.0
29/09:00pm 10.3 8.4 6.5 77 1.8 N 6 - 3 - - 1022.6 0.0
29/08:30pm 11.4 9.5 6.5 72 2.3 E 6 7 3 4 1022.3 - 0.0
29/08:00pm 12.2 10.1 6.0 66 2.9 E 6 7 3 4 1022.2 - 0.0
29/07:30pm 12.5 10.1 5.4 62 3.3 E 7 7 4 4 1021.9 - 0.0
29/07:00pm 14.0 11.2 5.1 55 4.2 E 9 11 5 6 1021.9 - 0.0
29/06:30pm 14.7 12.2 4.7 51 4.7 E 7 11 4 6 1021.6 - 0.0
29/06:00pm 15.4 12.5 4.8 49 5.0 ENE 9 9 5 5 1021.7 1021.7 0.0
29/05:30pm 16.5 12.9 2.9 40 6.2 ENE 11 15 6 8 1021.8 - 0.0
29/05:00pm 16.7 12.6 2.3 38 6.5 ENE 13 17 7 9 1021.8 - 0.0
29/04:30pm 17.2 13.2 3.1 39 6.5 ENE 13 17 7 9 1021.9 - 0.0
29/04:00pm 16.7 13.1 2.7 39 6.4 ENE 11 17 6 9 1022.1 - 0.0
29/03:30pm 16.9 13.8 3.6 41 6.2 NE 9 17 5 9 1022.3 - 0.0
29/03:00pm 16.8 14.1 3.5 41 6.1 NNE 7 13 4 7 1022.7 1022.6 0.0
29/02:30pm 16.4 12.9 3.5 42 6.0 NNE 11 19 6 10 1023.0 - 0.0
29/02:00pm 16.1 12.2 3.5 43 5.8 NE 13 19 7 10 1023.3 - 0.0
29/01:30pm 16.2 12.6 5.2 48 5.2 NE 13 20 7 11 1024.0 - 0.0
29/01:00pm 15.6 11.2 4.9 49 5.1 NE 17 22 9 12 1024.7 - 0.0
29/12:30pm 15.4 11.2 5.6 52 4.7 NE 17 24 9 13 1025.4 - 0.0
29/12:00pm 14.2 8.9 4.8 53 4.4 NE 22 28 12 15 1026.2 1026.1 0.0
29/11:00am 13.7 7.8 5.8 59 3.7 NE 26 33 14 18 1026.8 - 0.0
29/10:30am 12.6 7.0 5.3 61 3.4 NE 24 32 13 17 1027.1 - 0.0
29/10:00am 11.6 6.0 5.5 66 2.8 ENE 24 28 13 15 1027.1 - 0.0
29/09:30am 10.6 6.4 5.6 71 2.3 ESE 17 20 9 11 1027.1 - 0.0
29/09:00am 9.6 5.8 5.6 76 1.8 ESE 15 19 8 10 1027.1 1027.1 0.0
29/08:30am 7.9 5.1 5.0 82 1.3 ESE 9 11 5 6 1027.1 - 0.0
29/08:00am 6.8 4.3 5.0 88 0.8 ESE 7 11 4 6 1026.9 - 0.0
29/07:30am 5.4 3.0 4.1 91 0.6 ESE 6 7 3 4 1026.7 - 0.0
29/07:00am 5.5 3.1 4.2 91 0.6 ESE 6 7 3 4 1026.2 - 0.0
29/06:30am 6.2 3.3 4.5 89 0.7 ESE 9 11 5 6 1025.9 - 0.0
29/06:00am 6.3 3.4 4.8 90 0.6 ESE 9 11 5 6 1025.7 1025.7 0.0
29/05:30am 6.3 3.4 4.6 89 0.7 SE 9 11 5 6 1025.6 - 0.0
29/05:00am 6.8 3.9 4.8 87 0.9 ESE 9 11 5 6 1025.4 - 0.0
29/04:30am 7.3 3.7 5.1 86 1.0 ESE 13 15 7 8 1025.5 - 0.0
29/04:00am 7.6 4.1 5.4 86 1.0 ESE 13 15 7 8 1025.5 - 0.0
29/03:30am 7.5 4.4 5.5 87 0.9 ESE 11 13 6 7 1025.4 - 0.0
29/03:00am 7.5 4.8 5.5 87 0.9 SE 9 11 5 6 1025.5 1025.5 0.0
29/02:30am 7.7 5.0 5.8 88 0.9 SE 9 11 5 6 1025.7 - 0.0
29/02:00am 8.2 5.9 5.8 85 1.1 ESE 7 9 4 5 1025.9 - 0.0
29/01:30am 8.5 6.3 6.0 84 1.1 ESE 7 9 4 5 1026.3 - 0.0
29/01:00am 8.9 6.3 6.2 83 1.2 ESE 9 11 5 6 1026.2 - 0.0
29/12:30am 9.2 6.2 6.1 81 1.4 ESE 11 15 6 8 1026.4 - 0.0
29/12:00am 9.3 6.3 6.2 81 1.4 ESE 11 13 6 7 1026.7 1026.6 0.0
 
Date/Time
EST
Temp
°C
App
Temp
°C
Dew
Point
°C
Rel
Hum
%
Delta-T
°C
Wind Press
QNH
hPa
Press
MSL
hPa
Rain since
9am
mm
Dir  Spd
km/h
Gust
km/h
Spd
kts
Gust
kts
28/11:30pm 9.6 7.0 6.3 80 1.5 ESE 9 13 5 7 1027.0 - 0.0
28/11:00pm 10.1 7.2 6.4 78 1.7 ESE 11 15 6 8 1027.2 - 0.0
28/10:30pm 10.1 7.2 6.4 78 1.7 ESE 11 13 6 7 1027.1 - 0.0
28/10:00pm 10.5 7.6 6.6 77 1.8 ESE 11 13 6 7 1027.3 - 0.0
28/09:30pm 11.0 7.7 6.4 73 2.2 ESE 13 19 7 10 1027.3 - 0.0
28/09:00pm 11.5 8.2 6.4 71 2.4 ESE 13 17 7 9 1027.2 1027.3 0.0
28/08:30pm 11.7 8.4 6.4 70 2.5 SE 13 19 7 10 1027.1 - 0.0
28/08:00pm 12.2 8.8 6.0 66 2.9 SE 13 17 7 9 1027.0 - 0.0
28/07:30pm 12.9 9.4 5.6 61 3.4 SE 13 17 7 9 1026.8 - 0.0
28/07:00pm 13.4 9.9 5.6 59 3.7 SE 13 17 7 9 1026.6 - 0.0
28/06:30pm 14.2 10.2 5.0 54 4.3 ESE 15 19 8 10 1026.4 - 0.0
28/06:00pm 15.0 10.6 5.0 51 4.7 ESE 17 20 9 11 1026.3 1026.3 0.0
28/05:30pm 15.8 10.9 4.2 46 5.4 ESE 19 24 10 13 1026.1 - 0.0
28/05:00pm 16.2 11.2 4.6 46 5.5 ESE 20 26 11 14 1025.9 - 0.0
28/04:30pm 16.3 11.6 5.0 47 5.4 ESE 19 26 10 14 1026.2 - 0.0
28/04:00pm 16.4 11.4 4.8 46 5.5 ESE 20 28 11 15 1026.2 - 0.0
28/03:30pm 16.3 11.2 4.0 44 5.7 ESE 20 26 11 14 1026.1 - 0.0
28/03:00pm 16.5 11.1 4.5 45 5.6 SE 22 30 12 16 1026.4 1026.4 0.0
28/02:30pm 16.3 11.3 4.7 46 5.5 ESE 20 28 11 15 1026.6 - 0.0
28/02:00pm 16.2 11.1 4.3 45 5.6 ESE 20 28 11 15 1026.9 - 0.0
28/01:30pm 15.7 10.7 4.4 47 5.3 ESE 20 28 11 15 1027.3 - 0.0
28/01:00pm 15.1 10.7 5.0 51 4.8 E 17 24 9 13 1027.9 - 0.0
28/12:30pm 14.9 10.6 5.1 52 4.6 E 17 22 9 12 1028.5 - 0.0
28/12:00pm 14.6 10.7 5.4 54 4.3 E 15 20 8 11 1028.8 1028.7 0.0
28/11:30am 13.7 10.9 6.8 63 3.3 ESE 11 15 6 8 1029.1 - 0.0
28/11:00am 12.8 9.6 6.8 67 2.9 ESE 13 15 7 8 1029.1 - 0.0
28/10:30am 12.0 9.6 7.1 72 2.4 ESE 9 13 5 7 1029.3 - 0.0
28/10:00am 10.9 7.7 7.0 77 1.9 ESE 13 15 7 8 1029.2 - 0.0
28/09:30am 9.8 7.4 6.9 82 1.4 ESE 9 13 5 7 1028.7 - 0.0
28/09:00am 8.4 6.3 5.7 83 1.2 ESE 6 7 3 4 1028.5 1028.5 0.0
28/08:30am 7.5 5.5 6.1 91 0.6 ESE 6 7 3 4 1028.0 - 0.0
28/08:00am 6.1 3.9 5.1 93 0.4 ESE 6 6 3 3 1027.6 - 0.0
28/07:30am 5.2 2.8 4.2 93 0.4 ESE 6 6 3 3 1027.4 - 0.0
28/07:00am 5.3 2.9 4.3 93 0.4 ESE 6 7 3 4 1027.0 - 0.0
28/06:30am 5.7 3.4 4.7 93 0.4 ESE 6 7 3 4 1026.7 - 0.0
28/06:00am 5.5 3.1 4.5 93 0.4 ESE 6 6 3 3 1026.5 1026.5 0.0
28/05:30am 5.5 3.1 4.5 93 0.4 ESE 6 7 3 4 1026.1 - 0.0
28/05:00am 5.8 3.5 4.6 92 0.5 ESE 6 7 3 4 1025.8 - 0.0
28/04:30am 6.0 4.5 4.8 92 0.5 SE 2 6 1 3 1025.6 - 0.0
28/04:00am 6.2 5.1 5.0 92 0.5 CALM 0 0 0 0 1025.6 - 0.0
28/03:30am 6.3 5.1 4.8 90 0.7 CALM 0 0 0 0 1025.7 - 0.0
28/03:00am 6.7 5.6 5.3 91 0.6 CALM 0 0 0 0 1025.8 1025.8 0.0
28/02:30am 6.9 5.8 5.2 89 0.8 CALM 0 0 0 0 1025.9 - 0.0
28/02:00am 7.5 6.5 5.8 89 0.8 CALM 0 4 0 2 1026.0 - 0.0
28/01:30am 8.0 5.8 6.1 88 0.9 SE 7 7 4 4 1025.9 - 0.0
28/01:00am 8.3 6.1 6.3 87 0.9 ESE 7 9 4 5 1026.1 - 0.0
28/12:30am 8.5 6.4 6.6 88 0.9 ESE 7 9 4 5 1026.1 - 0.0
28/12:00am 9.2 7.1 6.6 84 1.2 ESE 7 9 4 5 1026.3 1026.3 0.0

Other Formats:

Comma delimited format used in spreadsheet applications
http://www.bom.gov.au/fwo/IDQ60801/IDQ60801.95482.axf

JavaScript Object Notation format (JSON) in row-major order
http://www.bom.gov.au/fwo/IDQ60801/IDQ60801.95482.json